sensor_id;sensor_type;location;lat;lon;timestamp;pressure;altitude;pressure_sealevel;temperature
58929;BMP180;44713;53.378;10.022;2023-04-06T00:00:35;101751.00;;;2.60
58929;BMP180;44713;53.378;10.022;2023-04-06T00:03:00;101755.00;;;2.50
58929;BMP180;44713;53.378;10.022;2023-04-06T00:05:26;101757.00;;;2.50
58929;BMP180;44713;53.378;10.022;2023-04-06T00:07:52;101743.00;;;2.50
58929;BMP180;44713;53.378;10.022;2023-04-06T00:10:19;101743.00;;;2.50
58929;BMP180;44713;53.378;10.022;2023-04-06T00:12:44;101747.00;;;2.30
58929;BMP180;44713;53.378;10.022;2023-04-06T00:15:10;101755.00;;;2.20
58929;BMP180;44713;53.378;10.022;2023-04-06T00:17:36;101744.00;;;2.10
58929;BMP180;44713;53.378;10.022;2023-04-06T00:20:01;101744.00;;;2.00
58929;BMP180;44713;53.378;10.022;2023-04-06T00:22:26;101745.00;;;2.00
58929;BMP180;44713;53.378;10.022;2023-04-06T00:24:52;101745.00;;;2.00
58929;BMP180;44713;53.378;10.022;2023-04-06T00:27:17;101747.00;;;2.00
58929;BMP180;44713;53.378;10.022;2023-04-06T00:29:43;101749.00;;;2.10
58929;BMP180;44713;53.378;10.022;2023-04-06T00:32:09;101745.00;;;2.10
58929;BMP180;44713;53.378;10.022;2023-04-06T00:34:34;101741.00;;;2.00
58929;BMP180;44713;53.378;10.022;2023-04-06T00:37:00;101743.00;;;1.90
58929;BMP180;44713;53.378;10.022;2023-04-06T00:39:25;101740.00;;;1.80
58929;BMP180;44713;53.378;10.022;2023-04-06T00:41:51;101741.00;;;1.70
58929;BMP180;44713;53.378;10.022;2023-04-06T00:44:18;101733.00;;;1.80
58929;BMP180;44713;53.378;10.022;2023-04-06T00:46:43;101733.00;;;1.80
58929;BMP180;44713;53.378;10.022;2023-04-06T00:49:09;101726.00;;;1.90
58929;BMP180;44713;53.378;10.022;2023-04-06T00:51:35;101726.00;;;1.80
58929;BMP180;44713;53.378;10.022;2023-04-06T00:54:00;101722.00;;;1.80
58929;BMP180;44713;53.378;10.022;2023-04-06T00:56:29;101717.00;;;1.80
58929;BMP180;44713;53.378;10.022;2023-04-06T00:58:54;101719.00;;;1.80
58929;BMP180;44713;53.378;10.022;2023-04-06T01:01:20;101725.00;;;1.80
58929;BMP180;44713;53.378;10.022;2023-04-06T01:03:48;101710.00;;;1.80
58929;BMP180;44713;53.378;10.022;2023-04-06T01:06:16;101713.00;;;1.80
58929;BMP180;44713;53.378;10.022;2023-04-06T01:08:44;101713.00;;;1.70
58929;BMP180;44713;53.378;10.022;2023-04-06T01:11:20;101719.00;;;1.70
58929;BMP180;44713;53.378;10.022;2023-04-06T01:13:47;101712.00;;;1.50
58929;BMP180;44713;53.378;10.022;2023-04-06T01:16:21;101710.00;;;1.40
58929;BMP180;44713;53.378;10.022;2023-04-06T01:19:09;101708.00;;;1.30
58929;BMP180;44713;53.378;10.022;2023-04-06T01:21:36;101702.00;;;1.30
58929;BMP180;44713;53.378;10.022;2023-04-06T01:24:27;101695.00;;;1.30
58929;BMP180;44713;53.378;10.022;2023-04-06T01:27:07;101701.00;;;1.30
58929;BMP180;44713;53.378;10.022;2023-04-06T01:30:06;101704.00;;;1.20
58929;BMP180;44713;53.378;10.022;2023-04-06T01:32:39;101702.00;;;1.20
58929;BMP180;44713;53.378;10.022;2023-04-06T01:35:06;101715.00;;;1.10
58929;BMP180;44713;53.378;10.022;2023-04-06T01:37:35;101695.00;;;1.00
58929;BMP180;44713;53.378;10.022;2023-04-06T01:40:04;101698.00;;;1.00
58929;BMP180;44713;53.378;10.022;2023-04-06T01:42:42;101697.00;;;1.10
58929;BMP180;44713;53.378;10.022;2023-04-06T01:45:10;101694.00;;;1.00
58929;BMP180;44713;53.378;10.022;2023-04-06T01:47:36;101695.00;;;0.90
58929;BMP180;44713;53.378;10.022;2023-04-06T01:50:03;101689.00;;;1.00
58929;BMP180;44713;53.378;10.022;2023-04-06T01:52:34;101696.00;;;1.00
58929;BMP180;44713;53.378;10.022;2023-04-06T01:55:00;101697.00;;;1.00
58929;BMP180;44713;53.378;10.022;2023-04-06T01:58:01;101702.00;;;0.90
58929;BMP180;44713;53.378;10.022;2023-04-06T02:00:33;101702.00;;;0.70
58929;BMP180;44713;53.378;10.022;2023-04-06T02:02:59;101687.00;;;0.70
58929;BMP180;44713;53.378;10.022;2023-04-06T02:05:30;101690.00;;;0.60
58929;BMP180;44713;53.378;10.022;2023-04-06T02:07:56;101693.00;;;0.60
58929;BMP180;44713;53.378;10.022;2023-04-06T02:10:30;101689.00;;;0.70
58929;BMP180;44713;53.378;10.022;2023-04-06T02:12:59;101691.00;;;0.60
58929;BMP180;44713;53.378;10.022;2023-04-06T02:15:26;101685.00;;;0.50
58929;BMP180;44713;53.378;10.022;2023-04-06T02:17:52;101690.00;;;0.40
58929;BMP180;44713;53.378;10.022;2023-04-06T02:20:18;101689.00;;;0.40
58929;BMP180;44713;53.378;10.022;2023-04-06T02:22:43;101689.00;;;0.50
58929;BMP180;44713;53.378;10.022;2023-04-06T02:25:09;101690.00;;;0.50
58929;BMP180;44713;53.378;10.022;2023-04-06T02:27:35;101685.00;;;0.50
58929;BMP180;44713;53.378;10.022;2023-04-06T02:30:02;101682.00;;;0.60
58929;BMP180;44713;53.378;10.022;2023-04-06T02:32:27;101682.00;;;0.60
58929;BMP180;44713;53.378;10.022;2023-04-06T02:34:53;101683.00;;;0.60
58929;BMP180;44713;53.378;10.022;2023-04-06T02:37:20;101687.00;;;0.60
58929;BMP180;44713;53.378;10.022;2023-04-06T02:39:46;101692.00;;;0.60
58929;BMP180;44713;53.378;10.022;2023-04-06T02:42:11;101696.00;;;0.60
58929;BMP180;44713;53.378;10.022;2023-04-06T02:44:37;101686.00;;;0.50
58929;BMP180;44713;53.378;10.022;2023-04-06T02:47:02;101683.00;;;0.50
58929;BMP180;44713;53.378;10.022;2023-04-06T02:49:28;101680.00;;;0.40
58929;BMP180;44713;53.378;10.022;2023-04-06T02:51:56;101677.00;;;0.50
58929;BMP180;44713;53.378;10.022;2023-04-06T02:54:25;101688.00;;;0.40
58929;BMP180;44713;53.378;10.022;2023-04-06T02:56:51;101682.00;;;0.20
58929;BMP180;44713;53.378;10.022;2023-04-06T02:59:18;101678.00;;;0.20
58929;BMP180;44713;53.378;10.022;2023-04-06T03:01:52;101677.00;;;0.30
58929;BMP180;44713;53.378;10.022;2023-04-06T03:04:18;101674.00;;;0.30
58929;BMP180;44713;53.378;10.022;2023-04-06T03:06:45;101665.00;;;0.30
58929;BMP180;44713;53.378;10.022;2023-04-06T03:09:20;101671.00;;;0.30
58929;BMP180;44713;53.378;10.022;2023-04-06T03:11:45;101672.00;;;0.30
58929;BMP180;44713;53.378;10.022;2023-04-06T03:14:11;101675.00;;;0.30
58929;BMP180;44713;53.378;10.022;2023-04-06T03:16:36;101679.00;;;0.20
58929;BMP180;44713;53.378;10.022;2023-04-06T03:19:01;101680.00;;;0.20
58929;BMP180;44713;53.378;10.022;2023-04-06T03:21:30;101674.00;;;0.20
58929;BMP180;44713;53.378;10.022;2023-04-06T03:23:55;101682.00;;;0.20
58929;BMP180;44713;53.378;10.022;2023-04-06T03:26:21;101674.00;;;0.20
58929;BMP180;44713;53.378;10.022;2023-04-06T03:28:48;101674.00;;;0.20
58929;BMP180;44713;53.378;10.022;2023-04-06T03:31:14;101673.00;;;0.20
58929;BMP180;44713;53.378;10.022;2023-04-06T03:34:00;101674.00;;;0.20
58929;BMP180;44713;53.378;10.022;2023-04-06T03:36:30;101676.00;;;0.20
58929;BMP180;44713;53.378;10.022;2023-04-06T03:38:56;101680.00;;;0.10
58929;BMP180;44713;53.378;10.022;2023-04-06T03:41:22;101676.00;;;0.10
58929;BMP180;44713;53.378;10.022;2023-04-06T03:44:06;101672.00;;;0.10
58929;BMP180;44713;53.378;10.022;2023-04-06T03:46:31;101677.00;;;0.10
58929;BMP180;44713;53.378;10.022;2023-04-06T03:48:58;101678.00;;;-0.20
58929;BMP180;44713;53.378;10.022;2023-04-06T03:51:23;101688.00;;;-0.20
58929;BMP180;44713;53.378;10.022;2023-04-06T03:53:49;101676.00;;;-0.30
58929;BMP180;44713;53.378;10.022;2023-04-06T03:56:14;101687.00;;;-0.30
58929;BMP180;44713;53.378;10.022;2023-04-06T03:58:39;101682.00;;;-0.20
58929;BMP180;44713;53.378;10.022;2023-04-06T04:01:05;101682.00;;;-0.20
58929;BMP180;44713;53.378;10.022;2023-04-06T04:03:30;101683.00;;;-0.10
58929;BMP180;44713;53.378;10.022;2023-04-06T04:05:56;101682.00;;;-0.20
58929;BMP180;44713;53.378;10.022;2023-04-06T04:08:24;101688.00;;;-0.20
58929;BMP180;44713;53.378;10.022;2023-04-06T04:10:50;101684.00;;;-0.40
58929;BMP180;44713;53.378;10.022;2023-04-06T04:13:15;101691.00;;;-0.40
58929;BMP180;44713;53.378;10.022;2023-04-06T04:15:44;101689.00;;;-0.30
58929;BMP180;44713;53.378;10.022;2023-04-06T04:18:09;101682.00;;;-0.30
58929;BMP180;44713;53.378;10.022;2023-04-06T04:20:35;101687.00;;;-0.20
58929;BMP180;44713;53.378;10.022;2023-04-06T04:23:00;101689.00;;;-0.40
58929;BMP180;44713;53.378;10.022;2023-04-06T04:25:29;101691.00;;;-0.40
58929;BMP180;44713;53.378;10.022;2023-04-06T04:27:55;101685.00;;;-0.30
58929;BMP180;44713;53.378;10.022;2023-04-06T04:30:21;101689.00;;;-0.30
58929;BMP180;44713;53.378;10.022;2023-04-06T04:32:46;101693.00;;;-0.30
58929;BMP180;44713;53.378;10.022;2023-04-06T04:35:12;101683.00;;;-0.40
58929;BMP180;44713;53.378;10.022;2023-04-06T04:37:41;101690.00;;;-0.40
58929;BMP180;44713;53.378;10.022;2023-04-06T04:40:07;101688.00;;;-0.40
58929;BMP180;44713;53.378;10.022;2023-04-06T04:42:42;101700.00;;;-0.40
58929;BMP180;44713;53.378;10.022;2023-04-06T04:45:14;101687.00;;;-0.30
58929;BMP180;44713;53.378;10.022;2023-04-06T04:47:40;101687.00;;;-0.40
58929;BMP180;44713;53.378;10.022;2023-04-06T04:50:06;101694.00;;;-0.30
58929;BMP180;44713;53.378;10.022;2023-04-06T04:52:34;101689.00;;;-0.30
58929;BMP180;44713;53.378;10.022;2023-04-06T04:55:13;101697.00;;;-0.40
58929;BMP180;44713;53.378;10.022;2023-04-06T04:57:40;101687.00;;;-0.40
58929;BMP180;44713;53.378;10.022;2023-04-06T05:00:06;101696.00;;;-0.30
58929;BMP180;44713;53.378;10.022;2023-04-06T05:02:33;101695.00;;;-0.30
58929;BMP180;44713;53.378;10.022;2023-04-06T05:05:13;101682.00;;;-0.40
58929;BMP180;44713;53.378;10.022;2023-04-06T05:07:39;101692.00;;;-0.40
58929;BMP180;44713;53.378;10.022;2023-04-06T05:10:08;101690.00;;;-0.50
58929;BMP180;44713;53.378;10.022;2023-04-06T05:12:40;101693.00;;;-0.70
58929;BMP180;44713;53.378;10.022;2023-04-06T05:15:08;101689.00;;;-0.70
58929;BMP180;44713;53.378;10.022;2023-04-06T05:17:33;101682.00;;;-0.70
58929;BMP180;44713;53.378;10.022;2023-04-06T05:19:59;101686.00;;;-0.60
58929;BMP180;44713;53.378;10.022;2023-04-06T05:22:25;101690.00;;;-0.50
58929;BMP180;44713;53.378;10.022;2023-04-06T05:25:02;101690.00;;;-0.50
58929;BMP180;44713;53.378;10.022;2023-04-06T05:27:27;101683.00;;;-0.50
58929;BMP180;44713;53.378;10.022;2023-04-06T05:29:53;101684.00;;;-0.50
58929;BMP180;44713;53.378;10.022;2023-04-06T05:32:18;101688.00;;;-0.50
58929;BMP180;44713;53.378;10.022;2023-04-06T05:34:49;101679.00;;;-0.50
58929;BMP180;44713;53.378;10.022;2023-04-06T05:37:15;101684.00;;;-0.50
58929;BMP180;44713;53.378;10.022;2023-04-06T05:39:41;101687.00;;;-0.50
58929;BMP180;44713;53.378;10.022;2023-04-06T05:42:06;101679.00;;;-0.40
58929;BMP180;44713;53.378;10.022;2023-04-06T05:44:52;101685.00;;;-0.40
58929;BMP180;44713;53.378;10.022;2023-04-06T05:47:19;101689.00;;;-0.40
58929;BMP180;44713;53.378;10.022;2023-04-06T05:49:49;101688.00;;;-0.40
58929;BMP180;44713;53.378;10.022;2023-04-06T05:52:23;101685.00;;;-0.40
58929;BMP180;44713;53.378;10.022;2023-04-06T05:54:49;101683.00;;;-0.40
58929;BMP180;44713;53.378;10.022;2023-04-06T05:57:15;101681.00;;;-0.30
58929;BMP180;44713;53.378;10.022;2023-04-06T05:59:42;101686.00;;;-0.30
58929;BMP180;44713;53.378;10.022;2023-04-06T06:02:09;101688.00;;;-0.40
58929;BMP180;44713;53.378;10.022;2023-04-06T06:04:39;101694.00;;;-0.40
58929;BMP180;44713;53.378;10.022;2023-04-06T06:07:04;101688.00;;;-0.30
58929;BMP180;44713;53.378;10.022;2023-04-06T06:09:36;101687.00;;;-0.20
58929;BMP180;44713;53.378;10.022;2023-04-06T06:12:27;101692.00;;;-0.10
58929;BMP180;44713;53.378;10.022;2023-04-06T06:14:54;101689.00;;;0.00
58929;BMP180;44713;53.378;10.022;2023-04-06T06:17:21;101690.00;;;0.00
58929;BMP180;44713;53.378;10.022;2023-04-06T06:19:48;101689.00;;;0.20
58929;BMP180;44713;53.378;10.022;2023-04-06T06:22:14;101684.00;;;0.20
58929;BMP180;44713;53.378;10.022;2023-04-06T06:24:43;101690.00;;;0.20
58929;BMP180;44713;53.378;10.022;2023-04-06T06:27:10;101691.00;;;0.40
58929;BMP180;44713;53.378;10.022;2023-04-06T06:29:37;101686.00;;;0.50
58929;BMP180;44713;53.378;10.022;2023-04-06T06:32:03;101682.00;;;0.60
58929;BMP180;44713;53.378;10.022;2023-04-06T06:34:29;101686.00;;;0.60
58929;BMP180;44713;53.378;10.022;2023-04-06T06:36:57;101696.00;;;0.60
58929;BMP180;44713;53.378;10.022;2023-04-06T06:39:22;101686.00;;;0.70
58929;BMP180;44713;53.378;10.022;2023-04-06T06:41:49;101687.00;;;0.70
58929;BMP180;44713;53.378;10.022;2023-04-06T06:44:15;101687.00;;;1.00
58929;BMP180;44713;53.378;10.022;2023-04-06T06:46:41;101683.00;;;1.10
58929;BMP180;44713;53.378;10.022;2023-04-06T06:49:07;101687.00;;;1.30
58929;BMP180;44713;53.378;10.022;2023-04-06T06:51:32;101684.00;;;1.40
58929;BMP180;44713;53.378;10.022;2023-04-06T06:54:00;101688.00;;;1.50
58929;BMP180;44713;53.378;10.022;2023-04-06T06:56:25;101688.00;;;1.60
58929;BMP180;44713;53.378;10.022;2023-04-06T06:58:52;101691.00;;;1.70
58929;BMP180;44713;53.378;10.022;2023-04-06T07:01:18;101678.00;;;1.80
58929;BMP180;44713;53.378;10.022;2023-04-06T07:03:43;101682.00;;;1.90
58929;BMP180;44713;53.378;10.022;2023-04-06T07:06:09;101681.00;;;2.00
58929;BMP180;44713;53.378;10.022;2023-04-06T07:08:34;101678.00;;;2.30
58929;BMP180;44713;53.378;10.022;2023-04-06T07:11:01;101682.00;;;2.50
58929;BMP180;44713;53.378;10.022;2023-04-06T07:13:27;101674.00;;;2.70
58929;BMP180;44713;53.378;10.022;2023-04-06T07:15:55;101673.00;;;2.70
58929;BMP180;44713;53.378;10.022;2023-04-06T07:18:22;101675.00;;;2.80
58929;BMP180;44713;53.378;10.022;2023-04-06T07:20:47;101668.00;;;3.00
58929;BMP180;44713;53.378;10.022;2023-04-06T07:23:14;101661.00;;;3.20
58929;BMP180;44713;53.378;10.022;2023-04-06T07:25:40;101671.00;;;3.40
58929;BMP180;44713;53.378;10.022;2023-04-06T07:28:05;101666.00;;;3.70
58929;BMP180;44713;53.378;10.022;2023-04-06T07:30:31;101661.00;;;3.70
58929;BMP180;44713;53.378;10.022;2023-04-06T07:32:58;101660.00;;;3.90
58929;BMP180;44713;53.378;10.022;2023-04-06T07:35:27;101674.00;;;4.10
58929;BMP180;44713;53.378;10.022;2023-04-06T07:37:54;101652.00;;;4.20
58929;BMP180;44713;53.378;10.022;2023-04-06T07:40:21;101654.00;;;4.40
58929;BMP180;44713;53.378;10.022;2023-04-06T07:42:47;101658.00;;;4.40
58929;BMP180;44713;53.378;10.022;2023-04-06T07:45:13;101653.00;;;4.50
58929;BMP180;44713;53.378;10.022;2023-04-06T07:47:39;101641.00;;;4.80
58929;BMP180;44713;53.378;10.022;2023-04-06T07:50:04;101642.00;;;4.80
58929;BMP180;44713;53.378;10.022;2023-04-06T07:52:32;101645.00;;;5.00
58929;BMP180;44713;53.378;10.022;2023-04-06T07:54:58;101636.00;;;5.10
58929;BMP180;44713;53.378;10.022;2023-04-06T07:57:24;101644.00;;;5.30
58929;BMP180;44713;53.378;10.022;2023-04-06T07:59:50;101640.00;;;5.30
58929;BMP180;44713;53.378;10.022;2023-04-06T08:02:15;101642.00;;;5.70
58929;BMP180;44713;53.378;10.022;2023-04-06T08:04:41;101633.00;;;5.70
58929;BMP180;44713;53.378;10.022;2023-04-06T08:07:06;101636.00;;;5.90
58929;BMP180;44713;53.378;10.022;2023-04-06T08:09:31;101626.00;;;6.00
58929;BMP180;44713;53.378;10.022;2023-04-06T08:11:57;101636.00;;;6.10
58929;BMP180;44713;53.378;10.022;2023-04-06T08:14:22;101630.00;;;6.20
58929;BMP180;44713;53.378;10.022;2023-04-06T08:16:47;101636.00;;;6.30
58929;BMP180;44713;53.378;10.022;2023-04-06T08:19:13;101633.00;;;6.50
58929;BMP180;44713;53.378;10.022;2023-04-06T08:21:38;101637.00;;;6.70
58929;BMP180;44713;53.378;10.022;2023-04-06T08:24:05;101640.00;;;6.70
58929;BMP180;44713;53.378;10.022;2023-04-06T08:26:31;101623.00;;;6.70
58929;BMP180;44713;53.378;10.022;2023-04-06T08:28:56;101624.00;;;6.80
58929;BMP180;44713;53.378;10.022;2023-04-06T08:31:21;101618.00;;;7.00
58929;BMP180;44713;53.378;10.022;2023-04-06T08:33:47;101625.00;;;7.10
58929;BMP180;44713;53.378;10.022;2023-04-06T08:36:13;101619.00;;;7.30
58929;BMP180;44713;53.378;10.022;2023-04-06T08:38:40;101614.00;;;7.50
58929;BMP180;44713;53.378;10.022;2023-04-06T08:41:10;101608.00;;;7.70
58929;BMP180;44713;53.378;10.022;2023-04-06T08:43:43;101606.00;;;7.80
58929;BMP180;44713;53.378;10.022;2023-04-06T08:46:09;101604.00;;;8.00
58929;BMP180;44713;53.378;10.022;2023-04-06T08:48:36;101608.00;;;8.10
58929;BMP180;44713;53.378;10.022;2023-04-06T08:51:02;101625.00;;;8.30
58929;BMP180;44713;53.378;10.022;2023-04-06T08:53:27;101604.00;;;8.50
58929;BMP180;44713;53.378;10.022;2023-04-06T08:55:54;101600.00;;;8.60
58929;BMP180;44713;53.378;10.022;2023-04-06T08:58:21;101606.00;;;8.90
58929;BMP180;44713;53.378;10.022;2023-04-06T09:00:48;101606.00;;;9.10
58929;BMP180;44713;53.378;10.022;2023-04-06T09:03:14;101603.00;;;9.30
58929;BMP180;44713;53.378;10.022;2023-04-06T09:05:41;101596.00;;;9.40
58929;BMP180;44713;53.378;10.022;2023-04-06T09:08:06;101609.00;;;9.40
58929;BMP180;44713;53.378;10.022;2023-04-06T09:10:32;101605.00;;;9.50
58929;BMP180;44713;53.378;10.022;2023-04-06T09:13:07;101598.00;;;9.70
58929;BMP180;44713;53.378;10.022;2023-04-06T09:15:34;101599.00;;;10.00
58929;BMP180;44713;53.378;10.022;2023-04-06T09:17:59;101594.00;;;10.10
58929;BMP180;44713;53.378;10.022;2023-04-06T09:20:25;101600.00;;;10.30
58929;BMP180;44713;53.378;10.022;2023-04-06T09:22:52;101588.00;;;10.40
58929;BMP180;44713;53.378;10.022;2023-04-06T09:25:23;101592.00;;;10.60
58929;BMP180;44713;53.378;10.022;2023-04-06T09:27:58;101592.00;;;10.70
58929;BMP180;44713;53.378;10.022;2023-04-06T09:30:24;101586.00;;;10.80
58929;BMP180;44713;53.378;10.022;2023-04-06T09:32:51;101583.00;;;10.90
58929;BMP180;44713;53.378;10.022;2023-04-06T09:35:18;101574.00;;;10.90
58929;BMP180;44713;53.378;10.022;2023-04-06T09:37:46;101582.00;;;11.20
58929;BMP180;44713;53.378;10.022;2023-04-06T09:40:13;101570.00;;;11.30
58929;BMP180;44713;53.378;10.022;2023-04-06T09:42:42;101571.00;;;11.50
58929;BMP180;44713;53.378;10.022;2023-04-06T09:45:08;101566.00;;;11.50
58929;BMP180;44713;53.378;10.022;2023-04-06T09:47:35;101572.00;;;11.60
58929;BMP180;44713;53.378;10.022;2023-04-06T09:50:02;101571.00;;;11.70
58929;BMP180;44713;53.378;10.022;2023-04-06T09:52:41;101572.00;;;12.00
58929;BMP180;44713;53.378;10.022;2023-04-06T09:55:08;101563.00;;;12.20
58929;BMP180;44713;53.378;10.022;2023-04-06T09:57:37;101562.00;;;12.40
58929;BMP180;44713;53.378;10.022;2023-04-06T10:00:07;101562.00;;;12.50
58929;BMP180;44713;53.378;10.022;2023-04-06T10:05:35;101568.00;;;12.80
58929;BMP180;44713;53.378;10.022;2023-04-06T10:08:07;101560.00;;;12.80
58929;BMP180;44713;53.378;10.022;2023-04-06T10:10:34;101562.00;;;12.80
58929;BMP180;44713;53.378;10.022;2023-04-06T10:13:00;101562.00;;;12.80
58929;BMP180;44713;53.378;10.022;2023-04-06T10:15:28;101560.00;;;12.80
58929;BMP180;44713;53.378;10.022;2023-04-06T10:17:54;101558.00;;;12.80
58929;BMP180;44713;53.378;10.022;2023-04-06T10:23:24;101551.00;;;13.10
58929;BMP180;44713;53.378;10.022;2023-04-06T10:25:58;101554.00;;;13.30
58929;BMP180;44713;53.378;10.022;2023-04-06T10:28:24;101564.00;;;13.40
58929;BMP180;44713;53.378;10.022;2023-04-06T10:30:57;101562.00;;;13.30
58929;BMP180;44713;53.378;10.022;2023-04-06T10:33:23;101568.00;;;13.40
58929;BMP180;44713;53.378;10.022;2023-04-06T10:35:48;101558.00;;;13.60
58929;BMP180;44713;53.378;10.022;2023-04-06T10:38:14;101559.00;;;13.80
58929;BMP180;44713;53.378;10.022;2023-04-06T10:40:42;101548.00;;;13.90
58929;BMP180;44713;53.378;10.022;2023-04-06T10:43:14;101547.00;;;13.70
58929;BMP180;44713;53.378;10.022;2023-04-06T10:45:42;101541.00;;;13.80
58929;BMP180;44713;53.378;10.022;2023-04-06T10:48:16;101537.00;;;13.90
58929;BMP180;44713;53.378;10.022;2023-04-06T10:50:50;101537.00;;;14.00
58929;BMP180;44713;53.378;10.022;2023-04-06T10:53:26;101543.00;;;14.50
58929;BMP180;44713;53.378;10.022;2023-04-06T10:55:54;101545.00;;;14.60
58929;BMP180;44713;53.378;10.022;2023-04-06T10:58:20;101537.00;;;14.70
58929;BMP180;44713;53.378;10.022;2023-04-06T11:00:46;101543.00;;;14.90
58929;BMP180;44713;53.378;10.022;2023-04-06T11:03:12;101537.00;;;14.80
58929;BMP180;44713;53.378;10.022;2023-04-06T11:05:38;101536.00;;;15.00
58929;BMP180;44713;53.378;10.022;2023-04-06T11:08:04;101533.00;;;15.10
58929;BMP180;44713;53.378;10.022;2023-04-06T11:10:29;101534.00;;;15.10
58929;BMP180;44713;53.378;10.022;2023-04-06T11:12:55;101520.00;;;15.30
58929;BMP180;44713;53.378;10.022;2023-04-06T11:15:21;101521.00;;;15.40
58929;BMP180;44713;53.378;10.022;2023-04-06T11:17:47;101517.00;;;15.30
58929;BMP180;44713;53.378;10.022;2023-04-06T11:20:14;101520.00;;;15.40
58929;BMP180;44713;53.378;10.022;2023-04-06T11:22:50;101517.00;;;15.50
58929;BMP180;44713;53.378;10.022;2023-04-06T11:25:16;101516.00;;;15.50
58929;BMP180;44713;53.378;10.022;2023-04-06T11:27:42;101512.00;;;15.70
58929;BMP180;44713;53.378;10.022;2023-04-06T11:30:08;101511.00;;;15.60
58929;BMP180;44713;53.378;10.022;2023-04-06T11:32:41;101509.00;;;16.00
58929;BMP180;44713;53.378;10.022;2023-04-06T11:35:11;101514.00;;;16.30
58929;BMP180;44713;53.378;10.022;2023-04-06T11:37:37;101514.00;;;16.30
58929;BMP180;44713;53.378;10.022;2023-04-06T11:40:03;101515.00;;;16.40
58929;BMP180;44713;53.378;10.022;2023-04-06T11:42:29;101499.00;;;16.30
58929;BMP180;44713;53.378;10.022;2023-04-06T11:44:59;101501.00;;;16.30
58929;BMP180;44713;53.378;10.022;2023-04-06T11:47:33;101503.00;;;16.60
58929;BMP180;44713;53.378;10.022;2023-04-06T11:50:13;101494.00;;;16.50
58929;BMP180;44713;53.378;10.022;2023-04-06T11:52:42;101498.00;;;16.40
58929;BMP180;44713;53.378;10.022;2023-04-06T11:55:18;101494.00;;;16.50
58929;BMP180;44713;53.378;10.022;2023-04-06T11:57:44;101492.00;;;16.80
58929;BMP180;44713;53.378;10.022;2023-04-06T12:00:10;101496.00;;;17.00
58929;BMP180;44713;53.378;10.022;2023-04-06T12:02:37;101508.00;;;17.10
58929;BMP180;44713;53.378;10.022;2023-04-06T12:05:03;101503.00;;;17.10
58929;BMP180;44713;53.378;10.022;2023-04-06T12:07:29;101500.00;;;17.30
58929;BMP180;44713;53.378;10.022;2023-04-06T12:09:55;101497.00;;;17.50
58929;BMP180;44713;53.378;10.022;2023-04-06T12:12:21;101497.00;;;17.40
58929;BMP180;44713;53.378;10.022;2023-04-06T12:14:46;101496.00;;;17.40
58929;BMP180;44713;53.378;10.022;2023-04-06T12:17:11;101503.00;;;17.40
58929;BMP180;44713;53.378;10.022;2023-04-06T12:19:37;101498.00;;;17.70
58929;BMP180;44713;53.378;10.022;2023-04-06T12:22:02;101494.00;;;17.40
58929;BMP180;44713;53.378;10.022;2023-04-06T12:24:28;101506.00;;;17.00
58929;BMP180;44713;53.378;10.022;2023-04-06T12:26:54;101488.00;;;17.20
58929;BMP180;44713;53.378;10.022;2023-04-06T12:29:19;101502.00;;;17.30
58929;BMP180;44713;53.378;10.022;2023-04-06T12:31:45;101485.00;;;17.20
58929;BMP180;44713;53.378;10.022;2023-04-06T12:34:11;101490.00;;;17.30
58929;BMP180;44713;53.378;10.022;2023-04-06T12:36:36;101485.00;;;17.60
58929;BMP180;44713;53.378;10.022;2023-04-06T12:39:02;101485.00;;;17.30
58929;BMP180;44713;53.378;10.022;2023-04-06T12:41:28;101492.00;;;16.60
58929;BMP180;44713;53.378;10.022;2023-04-06T12:43:54;101487.00;;;16.90
58929;BMP180;44713;53.378;10.022;2023-04-06T12:46:19;101486.00;;;16.80
58929;BMP180;44713;53.378;10.022;2023-04-06T12:48:45;101488.00;;;16.80
58929;BMP180;44713;53.378;10.022;2023-04-06T12:51:11;101491.00;;;16.80
58929;BMP180;44713;53.378;10.022;2023-04-06T12:53:37;101482.00;;;17.30
58929;BMP180;44713;53.378;10.022;2023-04-06T12:56:11;101489.00;;;17.20
58929;BMP180;44713;53.378;10.022;2023-04-06T12:58:37;101479.00;;;17.00
58929;BMP180;44713;53.378;10.022;2023-04-06T13:01:06;101475.00;;;17.30
58929;BMP180;44713;53.378;10.022;2023-04-06T13:03:31;101474.00;;;17.50
58929;BMP180;44713;53.378;10.022;2023-04-06T13:05:59;101476.00;;;17.80
58929;BMP180;44713;53.378;10.022;2023-04-06T13:08:24;101477.00;;;17.90
58929;BMP180;44713;53.378;10.022;2023-04-06T13:10:51;101473.00;;;18.10
58929;BMP180;44713;53.378;10.022;2023-04-06T13:13:28;101470.00;;;18.00
58929;BMP180;44713;53.378;10.022;2023-04-06T13:15:55;101472.00;;;17.70
58929;BMP180;44713;53.378;10.022;2023-04-06T13:18:23;101467.00;;;18.00
58929;BMP180;44713;53.378;10.022;2023-04-06T13:20:49;101468.00;;;18.10
58929;BMP180;44713;53.378;10.022;2023-04-06T13:23:15;101464.00;;;18.10
58929;BMP180;44713;53.378;10.022;2023-04-06T13:25:41;101463.00;;;18.00
58929;BMP180;44713;53.378;10.022;2023-04-06T13:28:07;101470.00;;;18.20
58929;BMP180;44713;53.378;10.022;2023-04-06T13:30:33;101477.00;;;18.30
58929;BMP180;44713;53.378;10.022;2023-04-06T13:32:58;101464.00;;;17.90
58929;BMP180;44713;53.378;10.022;2023-04-06T13:35:23;101460.00;;;18.00
58929;BMP180;44713;53.378;10.022;2023-04-06T13:37:49;101454.00;;;17.90
58929;BMP180;44713;53.378;10.022;2023-04-06T13:40:14;101459.00;;;18.10
58929;BMP180;44713;53.378;10.022;2023-04-06T13:42:40;101447.00;;;18.10
58929;BMP180;44713;53.378;10.022;2023-04-06T13:45:06;101447.00;;;18.00
58929;BMP180;44713;53.378;10.022;2023-04-06T13:47:32;101446.00;;;18.40
58929;BMP180;44713;53.378;10.022;2023-04-06T13:49:57;101447.00;;;18.50
58929;BMP180;44713;53.378;10.022;2023-04-06T13:52:23;101442.00;;;18.60
58929;BMP180;44713;53.378;10.022;2023-04-06T13:54:49;101444.00;;;18.50
58929;BMP180;44713;53.378;10.022;2023-04-06T13:57:15;101438.00;;;18.50
58929;BMP180;44713;53.378;10.022;2023-04-06T13:59:40;101438.00;;;18.30